Flight Track Log - Related Links

Times and Time Zones

All times are in EDT time to prevent confusion due to time zone crossing. See the N182BB flight status page for this flight to view local times or setup timezone preferences in your user account.

Time Position Orientation Groundspeed Altitude Reporting Facility
EDT Latitude Longitude Course Direction KTS MPH feet Rate Location/Type
Wed 04:23:00 PM 41.8368 -70.0855 296° West  Level Estimated
Wed 04:24:00 PM 41.8416 -70.1218 280° West  Level FlightAware Approximate
Wed 04:25:00 PM 41.8465 -70.1581 280° West  Level FlightAware Approximate
Wed 04:26:00 PM 41.8513 -70.1944 280° West  Level FlightAware Approximate
Wed 04:27:00 PM 41.8561 -70.2307 280° West  Level FlightAware Approximate
Wed 04:28:00 PM 41.8609 -70.2670 280° West  Level FlightAware Approximate
Wed 04:29:00 PM 41.8657 -70.3033 280° West  Level FlightAware Approximate
Wed 04:30:00 PM 41.8916 -70.3155 323° Northwest  Level Estimated
Wed 04:31:00 PM 41.9000 -70.3507 288° West  Level FlightAware Approximate
Wed 04:32:00 PM 41.9083 -70.3858 288° West  Level FlightAware Approximate
Wed 04:33:00 PM 41.9346 -70.3967 326° Northwest  Level Estimated
Wed 04:34:00 PM 41.9535 -70.4235 314° West  Level FlightAware Approximate
Wed 04:35:00 PM 41.9724 -70.4503 314° West  Level FlightAware Approximate
Wed 04:35:01 PM 41.9500 -70.4500 313° West 111 128 6,100  Level KA90
Wed 04:36:00 PM 41.9913 -70.4771 313° West  Level FlightAware Approximate
Wed 04:36:38 PM 41.9833 -70.5000 312° West 110 127 6,000  Level KA90
Wed 04:37:00 PM 42.0102 -70.5039 313° West  Level FlightAware Approximate
Wed 04:37:38 PM 42.0000 -70.5333 304° West 108 124 6,000  Level KA90
Wed 04:38:00 PM 42.0291 -70.5307 313° West  Level FlightAware Approximate
Wed 04:38:50 PM 42.0167 -70.5667 304° West 104 120 6,000  Level KA90
Wed 04:39:00 PM 42.0480 -70.5576 313° West  Level FlightAware Approximate
Wed 04:39:38 PM 42.0333 -70.5833 323° Northwest 105 121 6,000  Level KA90
Wed 04:40:00 PM 42.0668 -70.5845 313° West  Level FlightAware Approximate
Wed 04:40:38 PM 42.0500 -70.6167 304° West 106 122 6,000  Level KA90
Wed 04:41:32 PM 42.0500 -70.6500 270° West 104 120 6,000  Level KA90
Wed 04:42:38 PM 42.0500 -70.7000 270° West 101 116 6,000  Level KA90
Wed 04:43:38 PM 42.0500 -70.7333 270° West 103 119 6,000  Level KA90
Wed 04:44:44 PM 42.0667 -70.7833 294° West 101 116 6,000  Level KA90
Wed 04:45:38 PM 42.0667 -70.8167 270° West 99 114 6,000  Level KA90
Wed 04:46:38 PM 42.0833 -70.8500 304° West 102 117 6,000  Level KA90
Wed 04:47:33 PM 42.1000 -70.8667 323° Northwest 103 119 6,000  Level KA90
Wed 04:48:33 PM 42.1167 -70.9000 304° West 98 113 6,000  Level KA90
Wed 04:49:33 PM 42.1333 -70.9333 304° West 103 119 6,000  Level KA90
Wed 04:50:39 PM 42.1500 -70.9500 323° Northwest 101 116 6,000  Level KA90
Wed 04:51:39 PM 42.1667 -70.9833 304° West 98 113 6,000  Level KA90
Wed 04:52:45 PM 42.2000 -71.0167 323° Northwest 103 119 6,000  Level KA90
Wed 04:53:45 PM 42.2167 -71.0333 323° Northwest 105 121 6,000  Level KA90
Wed 04:54:45 PM 42.2500 -71.0500 340° North 102 117 6,000  Level KA90
Wed 04:55:45 PM 42.2667 -71.0500 360° North 100 115 6,000  Level KA90
Wed 04:56:34 PM 42.3000 -71.0667 340° North 113 130 6,000  Level KA90
Wed 04:57:51 PM 42.3333 -71.0833 340° North 112 129 6,000  Level KA90
Wed 04:58:40 PM 42.3667 -71.0833 360° North 102 117 6,000  Level KA90
Wed 04:59:46 PM 42.3833 -71.1000 324° Northwest 109 125 6,000  Level KA90
Wed 05:00:46 PM 42.4167 -71.1167 340° North 101 116 6,000  Level KA90
Wed 05:01:46 PM 42.4500 -71.1333 340° North 101 116 6,000  Level KA90
Wed 05:02:46 PM 42.4667 -71.1500 324° Northwest 100 115 6,000 -149 Level KA90
Wed 05:03:47 PM 42.5000 -71.1667 340° North 117 135 5,700 -150 Descending KA90
Wed 05:04:46 PM 42.5333 -71.1667 360° North 136 157 5,700 -53 Level KA90
Wed 05:05:41 PM 42.5667 -71.1500 20° North 130 150 5,600 -209 Descending KA90
Wed 05:06:41 PM 42.6000 -71.1333 20° North 142 163 5,300 -300 Descending KA90
Wed 05:07:41 PM 42.6333 -71.1167 20° North 150 173 5,000 -350 Descending KA90
Wed 05:08:41 PM 42.6667 -71.0833 36° Northeast 146 168 4,600 -350 Descending KA90
Wed 05:09:41 PM 42.7167 -71.0500 26° Northeast 148 170 4,300 -350 Descending KA90
Wed 05:10:41 PM 42.7500 -71.0333 20° North 145 167 3,900 -149 Descending KA90
Wed 05:11:42 PM 42.7833 -71.0000 36° Northeast 138 159 4,000 50 Climbing KA90
Wed 05:12:42 PM 42.8167 -70.9667 36° Northeast 140 161 4,000 -300 Level KA90
Wed 05:13:42 PM 42.8500 -70.9333 36° Northeast 151 174 3,400 -600 Descending KA90

Login

Don't have an account? Register now (free) for customized features, flight alerts, and more!